Time;durP1;ratioP1;P1;durP2;ratioP2;P2;SDS_P1;SDS_P2;PMS_P1;PMS_P2;Temp;Humidity;BMP_temperature;BMP_pressure;BME280_temperature;BME280_humidity;BME280_pressure;Samples;Min_cycle;Max_cycle;Signal;HPM_P1;HPM_P2
2022/10/05 00:01:45;;;;;;;5.42;2.40;;;;;;;10.07;100.00;99808.36;1720389;82;21078;-69
2022/10/05 00:04:20;;;;;;;3.80;2.50;;;;;;;10.08;100.00;99805.39;1724818;82;21661;-68
2022/10/05 00:07:07;;;;;;;6.20;2.50;;;;;;;10.10;100.00;99813.27;1724406;82;21094;-69
2022/10/05 00:09:34;;;;;;;5.95;2.75;;;;;;;10.12;100.00;99815.19;1718379;82;21158;-68
2022/10/05 00:12:17;;;;;;;;;;;;;;;10.11;100.00;99823.07;1733378;82;21058;-68
2022/10/05 00:14:48;;;;;;;5.67;2.20;;;;;;;10.09;100.00;99831.52;1731251;82;20138;-69
2022/10/05 00:17:23;;;;;;;5.45;2.35;;;;;;;10.04;100.00;99830.12;1725393;82;21085;-69
2022/10/05 00:19:51;;;;;;;5.45;2.75;;;;;;;10.04;100.00;99832.84;1718485;82;21142;-69
2022/10/05 00:22:24;;;;;;;4.95;2.58;;;;;;;10.02;100.00;99837.74;1697424;83;21086;-68
2022/10/05 00:25:00;;;;;;;3.67;2.40;;;;;;;9.99;100.00;99839.61;1740071;82;21129;-69
2022/10/05 00:27:31;;;;;;;5.70;2.40;;;;;;;10.00;100.00;99839.35;1733075;82;21160;-69
2022/10/05 00:30:00;;;;;;;4.28;2.20;;;;;;;10.01;100.00;99844.25;1717962;82;21062;-69
2022/10/05 00:32:26;;;;;;;5.83;2.33;;;;;;;10.01;100.00;99836.09;1709686;82;21065;-70
2022/10/05 00:34:53;;;;;;;7.85;2.40;;;;;;;9.98;100.00;99839.35;1720947;82;21066;-70
2022/10/05 00:37:19;;;;;;;;;;;;;;;9.96;100.00;99845.58;1721804;82;21561;-70
2022/10/05 00:39:45;;;;;;;5.37;2.30;;;;;;;9.96;100.00;99849.12;1718068;82;20166;-69
2022/10/05 00:42:37;;;;;;;5.30;2.17;;;;;;;9.91;100.00;99851.01;1739179;82;22271;-68
2022/10/05 00:45:26;;;;;;;3.98;2.33;;;;;;;9.90;100.00;99853.45;1745597;81;21071;-69
2022/10/05 00:48:10;;;;;;;5.80;2.05;;;;;;;9.87;100.00;99855.34;1722410;82;21059;-68
2022/10/05 00:50:58;;;;;;;4.30;2.27;;;;;;;9.88;100.00;99856.98;1741843;81;21066;-69
2022/10/05 00:54:08;;;;;;;5.40;2.37;;;;;;;9.93;100.00;99870.59;1721326;82;21055;-69
2022/10/05 00:57:05;;;;;;;5.12;2.27;;;;;;;9.85;100.00;99880.59;1720655;83;21046;-67
2022/10/05 00:59:57;;;;;;;2.60;1.90;;;;;;;9.80;100.00;99877.33;1720912;82;21102;-70
2022/10/05 01:02:52;;;;;;;6.33;2.50;;;;;;;9.82;100.00;99885.20;1733574;82;21094;-70
2022/10/05 01:05:41;;;;;;;3.67;2.30;;;;;;;9.73;100.00;99888.97;1730322;82;21038;-69
2022/10/05 01:08:41;;;;;;;2.98;2.20;;;;;;;9.74;100.00;99890.59;1732971;82;21071;-69
2022/10/05 01:11:19;;;;;;;4.30;2.10;;;;;;;9.73;100.00;99889.52;1728369;82;21161;-69
2022/10/05 01:14:07;;;;;;;7.03;2.27;;;;;;;9.69;100.00;99900.63;1720735;82;21082;-70
2022/10/05 01:16:57;;;;;;;5.40;1.87;;;;;;;9.64;100.00;99908.73;1720172;83;21604;-70
2022/10/05 01:20:20;;;;;;;7.35;2.02;;;;;;;9.64;100.00;99913.63;1738824;82;21114;-69
2022/10/05 01:23:38;;;;;;;9.38;2.52;;;;;;;9.64;100.00;99910.09;1720113;83;21078;-69
2022/10/05 01:26:38;;;;;;;6.85;2.60;;;;;;;9.55;100.00;99912.49;1723596;82;21118;-67
2022/10/05 01:29:23;;;;;;;5.28;2.00;;;;;;;9.53;100.00;99920.63;1736260;82;21059;-69
2022/10/05 01:32:04;;;;;;;4.60;2.25;;;;;;;9.53;100.00;99920.63;1720371;83;21632;-70
2022/10/05 01:34:41;;;;;;;7.00;2.22;;;;;;;9.52;100.00;99913.55;1723965;82;21074;-69
2022/10/05 01:37:25;;;;;;;4.90;2.12;;;;;;;9.47;100.00;99910.25;1738191;82;21027;-69
2022/10/05 01:40:08;;;;;;;7.05;2.10;;;;;;;9.51;100.00;99934.47;1730365;82;21119;-70
2022/10/05 01:43:06;;;;;;;5.75;2.40;;;;;;;9.55;100.00;99940.20;1721946;82;21102;-68
2022/10/05 01:46:22;;;;;;;3.77;2.45;;;;;;;9.57;100.00;99936.14;1744462;81;21624;-70
2022/10/05 01:48:57;;;;;;;3.42;2.30;;;;;;;9.50;100.00;99938.26;1721641;82;21043;-70
2022/10/05 01:51:48;;;;;;;3.42;2.17;;;;;;;9.49;100.00;99946.95;1743955;81;21060;-69
2022/10/05 01:54:45;;;;;;;5.47;2.33;;;;;;;9.53;100.00;99954.04;1748519;81;21043;-68
2022/10/05 01:57:23;;;;;;;5.45;2.27;;;;;;;9.53;100.00;99958.69;1733873;81;21059;-68
2022/10/05 01:59:58;;;;;;;6.95;2.15;;;;;;;9.46;100.00;99973.81;1747528;81;22116;-68
2022/10/05 02:02:24;;;;;;;6.50;2.58;;;;;;;9.47;100.00;99973.58;1742112;81;21023;-70
2022/10/05 02:04:54;;;;;;;;;;;;;;;9.50;100.00;99967.61;1737467;81;21094;-68
2022/10/05 02:07:35;;;;;;;5.80;2.67;;;;;;;9.53;100.00;99977.70;1754054;81;20445;-70
2022/10/05 02:10:13;;;;;;;6.70;2.58;;;;;;;9.45;100.00;99980.35;1764484;81;21052;-69
2022/10/05 02:12:39;;;;;;;7.97;2.80;;;;;;;9.49;100.00;99983.63;1748193;81;21018;-70
2022/10/05 02:15:17;;;;;;;5.22;3.00;;;;;;;9.58;100.00;99985.88;1741353;81;21122;-70
2022/10/05 02:17:53;;;;;;;6.53;2.87;;;;;;;9.59;100.00;99990.25;1756669;81;21617;-68
2022/10/05 02:20:26;;;;;;;6.10;2.83;;;;;;;9.57;100.00;99991.03;1741492;81;21028;-69
2022/10/05 02:22:57;;;;;;;5.05;2.50;;;;;;;9.61;100.00;100002.49;1735536;81;21122;-69
2022/10/05 02:25:34;;;;;;;5.30;2.50;;;;;;;9.57;100.00;100001.91;1734202;81;21063;-68
2022/10/05 02:28:24;;;;;;;5.50;2.40;;;;;;;9.50;100.00;99998.87;1738193;81;21130;-69
2022/10/05 02:31:10;;;;;;;7.62;2.45;;;;;;;9.48;100.00;99998.31;1733750;83;21047;-69
2022/10/05 02:33:39;;;;;;;6.33;2.67;;;;;;;9.47;100.00;100005.36;1735699;81;21110;-69
2022/10/05 02:36:25;;;;;;;5.22;2.37;;;;;;;9.39;100.00;100009.36;1737932;81;21052;-68
2022/10/05 02:39:09;;;;;;;7.10;2.08;;;;;;;9.37;100.00;100004.73;1738299;81;21099;-68
2022/10/05 02:41:48;;;;;;;6.35;2.30;;;;;;;9.38;100.00;100002.30;1742559;81;21102;-68
2022/10/05 02:44:35;;;;;;;6.00;2.22;;;;;;;9.35;100.00;99998.72;1758302;81;21122;-70
2022/10/05 02:47:22;;;;;;;7.12;2.20;;;;;;;9.38;100.00;100000.13;1743186;81;21743;-69
2022/10/05 02:50:25;;;;;;;4.95;2.27;;;;;;;9.37;100.00;99988.97;1736737;81;21540;-69
2022/10/05 02:53:14;;;;;;;5.37;2.50;;;;;;;9.46;100.00;99998.27;1741055;80;21098;-68
2022/10/05 02:56:14;;;;;;;5.67;2.20;;;;;;;9.53;100.00;100007.59;1739392;82;21530;-68
2022/10/05 02:59:10;;;;;;;4.85;2.40;;;;;;;9.47;100.00;100002.64;1740686;82;21160;-69
2022/10/05 03:02:07;;;;;;;5.42;2.02;;;;;;;9.44;100.00;100010.78;1738308;82;21067;-66
2022/10/05 03:05:00;;;;;;;3.67;1.90;;;;;;;9.49;100.00;100007.30;1725501;82;21631;-68
2022/10/05 03:07:54;;;;;;;6.67;2.67;;;;;;;9.50;100.00;100021.97;1721354;82;21022;-68
2022/10/05 03:10:55;;;;;;;3.72;2.02;;;;;;;9.45;100.00;100026.02;1736645;82;21047;-67
2022/10/05 03:13:59;;;;;;;4.03;2.15;;;;;;;9.50;100.00;100024.69;1731681;82;21126;-67
2022/10/05 03:17:09;;;;;;;5.33;2.47;;;;;;;9.56;100.00;100027.46;1732019;82;21069;-70
2022/10/05 03:19:59;;;;;;;5.92;2.15;;;;;;;9.53;100.00;100028.78;1709231;82;21613;-70
2022/10/05 03:22:48;;;;;;;4.25;2.10;;;;;;;9.50;100.00;100036.09;1741528;82;21491;-70
2022/10/05 03:25:51;;;;;;;5.75;2.30;;;;;;;9.54;100.00;100041.83;1724008;82;21498;-70
2022/10/05 03:28:31;;;;;;;5.05;2.30;;;;;;;9.55;100.00;100037.51;1728877;82;21082;-69
2022/10/05 03:31:32;;;;;;;5.92;2.52;;;;;;;9.50;100.00;100044.24;1720279;82;21047;-68
2022/10/05 03:34:07;;;;;;;6.03;2.25;;;;;;;9.57;100.00;100050.82;1740475;82;21157;-70
2022/10/05 03:37:03;;;;;;;6.78;2.20;;;;;;;9.59;100.00;100055.48;1746437;82;21106;-69
2022/10/05 03:39:58;;;;;;;3.62;2.10;;;;;;;9.56;100.00;100058.19;1730790;82;21086;-69
2022/10/05 03:42:30;;;;;;;5.28;2.15;;;;;;;9.50;100.00;100059.19;1727786;80;21039;-68
2022/10/05 03:45:12;;;;;;;5.35;2.05;;;;;;;9.53;100.00;100053.23;1717951;83;21038;-70
2022/10/05 03:48:11;;;;;;;5.47;2.20;;;;;;;9.59;100.00;100055.48;1729673;82;21122;-70
2022/10/05 03:50:49;;;;;;;4.60;2.27;;;;;;;9.59;100.00;100052.23;1739248;82;21039;-69
2022/10/05 03:53:22;;;;;;;7.22;2.40;;;;;;;9.56;100.00;100054.11;1734640;81;21143;-70
2022/10/05 03:55:59;;;;;;;6.65;2.47;;;;;;;9.56;100.00;100057.36;1726426;82;21862;-69
2022/10/05 03:58:38;;;;;;;5.60;2.72;;;;;;;9.61;100.00;100058.75;1740960;82;21753;-70
2022/10/05 04:01:09;;;;;;;6.20;2.40;;;;;;;9.56;100.00;100058.72;1740039;82;20979;-70
2022/10/05 04:03:42;;;;;;;5.65;2.70;;;;;;;9.62;100.00;100067.19;1725643;82;21101;-69
2022/10/05 04:06:27;;;;;;;6.40;2.40;;;;;;;9.67;100.00;100068.05;1734931;82;21010;-70
2022/10/05 04:08:59;;;;;;;5.40;2.17;;;;;;;9.70;100.00;100062.66;1726058;82;21086;-70
2022/10/05 04:11:37;;;;;;;6.55;2.17;;;;;;;9.66;100.00;100070.51;1720485;83;21105;-70
2022/10/05 04:14:15;;;;;;;4.00;2.02;;;;;;;9.59;100.00;100075.86;1720365;83;21106;-70
2022/10/05 04:16:49;;;;;;;6.28;2.12;;;;;;;9.63;100.00;100075.64;1718768;82;21629;-69
2022/10/05 04:19:43;;;;;;;6.22;2.42;;;;;;;9.66;100.00;100077.30;1720818;83;21015;-70
2022/10/05 04:22:17;;;;;;;5.75;2.35;;;;;;;9.64;100.00;100076.72;1706738;82;21078;-68
2022/10/05 04:25:17;;;;;;;7.17;2.27;;;;;;;9.60;100.00;100080.23;1721639;82;21090;-69
2022/10/05 04:27:52;;;;;;;4.20;2.08;;;;;;;9.63;100.00;100078.36;1749187;82;21098;-70
2022/10/05 04:30:18;;;;;;;4.83;2.30;;;;;;;9.64;100.00;100088.95;1749868;82;21780;-71
2022/10/05 04:32:53;;;;;;;5.53;2.22;;;;;;;9.59;100.00;100088.09;1745097;82;22223;-70
2022/10/05 04:36:01;;;;;;;5.53;2.33;;;;;;;9.56;100.00;100096.23;1723754;82;21015;-70
2022/10/05 04:38:57;;;;;;;6.33;2.05;;;;;;;9.59;100.00;100097.61;1741767;82;21083;-70
2022/10/05 04:41:36;;;;;;;4.45;2.00;;;;;;;9.62;100.00;100097.92;1726783;82;21595;-70
2022/10/05 04:44:33;;;;;;;7.40;2.33;;;;;;;9.61;100.00;100109.03;1727954;82;21073;-69
2022/10/05 04:47:21;;;;;;;6.47;2.12;;;;;;;9.58;100.00;100108.19;1738390;82;21042;-70
2022/10/05 04:50:14;;;;;;;6.95;2.00;;;;;;;9.60;100.00;100114.20;1691534;84;21074;-68
2022/10/05 04:53:00;;;;;;;4.58;2.72;;;;;;;9.66;100.00;100127.59;1680147;83;21977;-69
2022/10/05 04:55:38;;;;;;;2.77;1.90;;;;;;;9.64;100.00;100126.19;1665139;85;21044;-68
2022/10/05 04:58:56;;;;;;;6.30;2.37;;;;;;;9.64;100.00;100134.34;1664622;85;21131;-69
2022/10/05 05:02:19;;;;;;;4.47;2.25;;;;;;;9.68;100.00;100141.73;1652368;85;21015;-68
2022/10/05 05:05:17;;;;;;;4.62;2.60;;;;;;;9.75;100.00;100151.05;1652342;87;21091;-70
2022/10/05 05:08:18;;;;;;;9.60;2.27;;;;;;;9.66;100.00;100149.88;1681669;85;21158;-69
2022/10/05 05:11:02;;;;;;;3.92;1.92;;;;;;;9.66;100.00;100158.03;1667599;85;21047;-68
2022/10/05 05:14:07;;;;;;;5.45;2.02;;;;;;;9.74;100.00;100154.86;1674709;85;21111;-69
2022/10/05 05:16:42;;;;;;;5.62;2.45;;;;;;;9.78;100.00;100154.60;1656352;86;22206;-69
2022/10/05 05:19:39;;;;;;;7.50;2.20;;;;;;;9.75;100.00;100152.40;1657462;86;21685;-68
2022/10/05 05:22:37;;;;;;;4.62;1.95;;;;;;;9.78;100.00;100153.24;1657329;86;21174;-70
2022/10/05 05:25:18;;;;;;;6.50;2.15;;;;;;;9.86;100.00;100154.15;1656806;86;21142;-69
2022/10/05 05:27:54;;;;;;;7.65;2.25;;;;;;;9.90;100.00;100155.28;1657219;86;21043;-71
2022/10/05 05:30:30;;;;;;;3.95;1.95;;;;;;;9.91;100.00;100161.02;1657432;86;21119;-69
2022/10/05 05:33:11;;;;;;;6.25;2.00;;;;;;;10.02;100.00;100170.92;1633505;86;21176;-70
2022/10/05 05:35:43;;;;;;;3.42;2.00;;;;;;;10.12;100.00;100174.27;1658374;86;21063;-69
2022/10/05 05:38:31;;;;;;;6.50;2.20;;;;;;;10.13;100.00;100170.47;1658742;86;21060;-69
2022/10/05 05:41:18;;;;;;;5.78;1.98;;;;;;;10.13;100.00;100172.63;1655249;86;21044;-69
2022/10/05 05:44:02;;;;;;;3.92;1.85;;;;;;;10.19;100.00;100170.28;1658825;86;21643;-70
2022/10/05 05:46:36;;;;;;;4.55;2.17;;;;;;;10.27;100.00;100173.08;1658456;86;21127;-69
2022/10/05 05:49:18;;;;;;;5.00;1.90;;;;;;;10.28;100.00;100181.50;1657177;86;21697;-69
2022/10/05 05:51:57;;;;;;;4.85;2.08;;;;;;;10.26;100.00;100183.14;1632627;86;21366;-68
2022/10/05 05:54:47;;;;;;;4.08;1.65;;;;;;;10.32;100.00;100180.73;1657187;86;21676;-69
2022/10/05 05:57:43;;;;;;;3.70;2.30;;;;;;;10.41;100.00;100188.72;1657347;86;21072;-69
2022/10/05 06:00:29;;;;;;;6.53;2.15;;;;;;;10.41;100.00;100187.36;1657488;86;21118;-69
2022/10/05 06:03:11;;;;;;;7.20;2.40;;;;;;;10.45;100.00;100189.02;1657532;86;21123;-69
2022/10/05 06:05:45;;;;;;;4.33;1.72;;;;;;;10.54;100.00;100197.51;1657337;86;21120;-68
2022/10/05 06:08:41;;;;;;;4.55;2.02;;;;;;;10.57;100.00;100196.45;1657635;86;21419;-66
2022/10/05 06:11:42;;;;;;;4.03;1.60;;;;;;;10.58;100.00;100200.82;1656671;86;21123;-69
2022/10/05 06:14:19;;;;;;;4.47;1.85;;;;;;;10.69;100.00;100198.99;1657379;86;21110;-68
2022/10/05 06:16:57;;;;;;;4.37;1.98;;;;;;;10.77;100.00;100210.77;1657329;86;21095;-69
2022/10/05 06:19:25;;;;;;;3.67;1.77;;;;;;;10.74;100.00;100212.09;1657238;86;22398;-70
2022/10/05 06:22:18;;;;;;;6.58;1.70;;;;;;;10.77;100.00;100218.94;1657569;86;21054;-69
2022/10/05 06:24:54;;;;;;;4.97;1.80;;;;;;;10.79;100.00;100218.12;1657220;86;21195;-69
2022/10/05 06:27:36;;;;;;;3.65;1.90;;;;;;;10.80;100.00;100222.50;1657562;86;21130;-69
2022/10/05 06:30:13;;;;;;;3.50;2.02;;;;;;;10.78;100.00;100222.75;1664240;86;21477;-70
2022/10/05 06:32:59;;;;;;;3.15;1.65;;;;;;;10.74;100.00;100220.27;1658825;86;21036;-69
2022/10/05 06:35:56;;;;;;;3.35;1.70;;;;;;;10.78;100.00;100222.75;1659156;86;21049;-70
2022/10/05 06:38:50;;;;;;;3.98;1.60;;;;;;;10.80;100.00;100227.95;1658645;86;21112;-70
2022/10/05 06:41:53;;;;;;;4.70;1.98;;;;;;;10.89;100.00;100233.17;1657583;86;21824;-68
2022/10/05 06:44:31;;;;;;;3.60;1.87;;;;;;;11.02;100.00;100237.36;1657413;86;21426;-69
2022/10/05 06:47:30;;;;;;;3.85;1.60;;;;;;;11.17;100.00;100236.90;1653922;86;21107;-69
2022/10/05 06:50:36;;;;;;;3.95;1.40;;;;;;;11.20;100.00;100236.37;1656378;86;21681;-68
2022/10/05 06:53:40;;;;;;;4.72;1.80;;;;;;;11.30;100.00;100245.16;1660037;85;21099;-69
2022/10/05 06:56:21;;;;;;;19.42;10.10;;;;;;;11.41;100.00;100236.76;1666937;86;21070;-69
2022/10/05 06:59:33;;;;;;;20.52;11.35;;;;;;;11.38;100.00;100233.20;1666623;86;21639;-68
2022/10/05 07:02:18;;;;;;;8.55;3.47;;;;;;;11.35;100.00;100240.55;1666503;85;21800;-67
2022/10/05 07:05:31;;;;;;;2.55;1.42;;;;;;;11.37;100.00;100241.09;1663705;86;21732;-67
2022/10/05 07:08:27;;;;;;;4.90;1.47;;;;;;;11.53;100.00;100249.36;1637197;86;21605;-68
2022/10/05 07:11:26;;;;;;;3.83;1.40;;;;;;;11.64;100.00;100248.32;1666354;86;21605;-69
2022/10/05 07:14:20;;;;;;;3.58;1.42;;;;;;;11.80;100.00;100248.67;1666086;86;21133;-69
2022/10/05 07:17:13;;;;;;;4.67;1.42;;;;;;;11.96;100.00;100247.66;1665708;86;21119;-69
2022/10/05 07:20:03;;;;;;;3.67;1.45;;;;;;;12.03;100.00;100254.22;1665912;86;21134;-70
2022/10/05 07:22:42;;;;;;;6.65;1.65;;;;;;;12.07;100.00;100256.16;1659944;86;21375;-69
2022/10/05 07:25:28;;;;;;;3.15;1.52;;;;;;;12.07;100.00;100266.24;1658718;86;21075;-69
2022/10/05 07:28:06;;;;;;;4.80;1.52;;;;;;;12.03;100.00;100267.33;1667915;85;21083;-70
2022/10/05 07:30:59;;;;;;;4.80;1.60;;;;;;;12.02;100.00;100273.03;1667016;86;21575;-70
2022/10/05 07:33:48;;;;;;;3.15;1.35;;;;;;;12.12;100.00;100282.07;1666205;86;21118;-67
2022/10/05 07:39:52;;;;;;;3.40;1.22;;;;;;;12.03;100.00;100287.79;1666255;85;21122;-69
2022/10/05 07:42:56;;;;;;;3.65;1.20;;;;;;;12.00;100.00;100290.23;1666513;86;21068;-68
2022/10/05 07:45:56;;;;;;;4.72;1.10;;;;;;;11.95;100.00;100297.84;1666355;85;21990;-67
2022/10/05 07:48:42;;;;;;;1.95;1.12;;;;;;;12.04;100.00;100298.98;1666725;85;21111;-69
2022/10/05 07:51:27;;;;;;;3.52;1.52;;;;;;;12.07;100.00;100297.08;1666627;86;21055;-72
2022/10/05 07:54:05;;;;;;;3.22;1.10;;;;;;;12.01;100.00;100294.61;1661248;85;21099;-68
2022/10/05 07:56:42;;;;;;;6.33;1.55;;;;;;;12.13;100.00;100290.55;1651112;86;21081;-71
2022/10/05 07:59:35;;;;;;;3.37;1.32;;;;;;;12.27;100.00;100286.22;1657450;86;21103;-69
2022/10/05 08:02:25;;;;;;;3.80;1.37;;;;;;;12.26;100.00;100279.11;1657600;86;21023;-68
2022/10/05 08:05:01;;;;;;;6.22;1.45;;;;;;;12.28;100.00;100284.31;1657217;86;21587;-69
2022/10/05 08:07:28;;;;;;;4.57;1.40;;;;;;;12.39;100.00;100279.97;1657868;86;21614;-71
2022/10/05 08:10:19;;;;;;;4.90;1.20;;;;;;;12.57;100.00;100277.81;1657054;86;21138;-70
2022/10/05 08:13:13;;;;;;;5.08;1.52;;;;;;;12.68;100.00;100280.25;1657189;86;21088;-70
2022/10/05 08:15:42;;;;;;;2.33;1.10;;;;;;;12.69;100.00;100272.34;1657351;86;21400;-68
2022/10/05 08:18:41;;;;;;;4.22;1.30;;;;;;;12.64;100.00;100279.73;1658610;86;21701;-67
2022/10/05 08:21:10;;;;;;;4.70;1.45;;;;;;;12.65;100.00;100289.00;1659084;86;21050;-70
2022/10/05 08:23:44;;;;;;;3.67;1.45;;;;;;;12.63;100.00;100292.56;1658326;86;21166;-67
2022/10/05 08:26:25;;;;;;;3.77;1.30;;;;;;;12.55;100.00;100301.82;1657565;86;21051;-67
2022/10/05 08:29:18;;;;;;;3.10;1.37;;;;;;;12.55;100.00;100301.82;1657354;86;21134;-68
2022/10/05 08:31:47;;;;;;;5.60;1.30;;;;;;;12.67;100.00;100308.69;1657389;86;21067;-67
2022/10/05 08:34:31;;;;;;;5.92;1.40;;;;;;;12.77;100.00;100305.95;1657394;86;21088;-68
2022/10/05 08:37:08;;;;;;;3.52;1.30;;;;;;;12.83;100.00;100297.20;1657115;86;22260;-70
2022/10/05 08:39:39;;;;;;;3.62;1.40;;;;;;;12.88;100.00;100309.52;1657546;86;21194;-68
2022/10/05 08:42:37;;;;;;;5.12;1.55;;;;;;;12.92;100.00;100310.07;1657668;86;21052;-70
2022/10/05 08:45:33;;;;;;;3.00;1.67;;;;;;;12.84;100.00;100301.05;1657570;86;21115;-70
2022/10/05 08:48:44;;;;;;;4.28;1.27;;;;;;;12.69;100.00;100302.93;1657567;86;21055;-70
2022/10/05 08:51:34;;;;;;;5.75;1.35;;;;;;;12.68;100.00;100310.88;1632562;86;21083;-70
2022/10/05 08:54:55;;;;;;;4.92;1.50;;;;;;;12.79;100.00;100322.88;1618614;86;21079;-68
2022/10/05 08:57:50;;;;;;;3.62;1.30;;;;;;;12.84;100.00;100328.91;1659190;86;21126;-72
2022/10/05 09:00:24;;;;;;;2.98;1.15;;;;;;;12.81;100.00;100323.45;1659037;86;21665;-67
2022/10/05 09:03:25;;;;;;;2.08;1.15;;;;;;;12.96;100.00;100333.03;1658982;86;21067;-71
2022/10/05 09:06:20;;;;;;;4.45;1.12;;;;;;;12.99;100.00;100327.55;1660633;85;21074;-67
2022/10/05 09:09:07;;;;;;;3.22;1.50;;;;;;;12.99;100.00;100326.19;1660587;86;21637;-69
2022/10/05 09:12:13;;;;;;;2.58;1.20;;;;;;;12.95;100.00;100319.63;1660430;86;21053;-71
2022/10/05 09:15:02;;;;;;;4.45;1.27;;;;;;;12.92;100.00;100322.91;1660385;86;21744;-71
2022/10/05 09:18:26;;;;;;;3.87;1.07;;;;;;;12.84;100.00;100311.14;1640884;86;21589;-71
2022/10/05 09:20:58;;;;;;;3.90;1.30;;;;;;;12.83;100.00;100323.98;1659157;86;21000;-71
2022/10/05 09:23:42;;;;;;;3.72;1.40;;;;;;;12.95;100.00;100325.09;1633802;86;21725;-71
2022/10/05 09:26:43;;;;;;;2.90;1.10;;;;;;;13.02;100.00;100309.23;1658560;86;21602;-70
2022/10/05 09:29:55;;;;;;;5.42;1.40;;;;;;;13.06;100.00;100330.01;1658891;85;21167;-71
2022/10/05 09:33:13;;;;;;;6.70;1.40;;;;;;;13.06;100.00;100327.28;1658837;86;21083;-71
2022/10/05 09:36:11;;;;;;;5.58;1.22;;;;;;;13.06;100.00;100324.00;1659696;86;21047;-71
2022/10/05 09:38:54;;;;;;;;;;;;;;;13.09;100.00;100322.63;1661650;86;21099;-71
2022/10/05 09:42:11;;;;;;;3.08;1.12;;;;;;;13.15;100.00;100327.02;1658519;86;20192;-69
2022/10/05 09:45:35;;;;;;;3.70;1.10;;;;;;;13.19;100.00;100333.58;1658666;86;21162;-71
2022/10/05 09:48:48;;;;;;;4.33;1.47;;;;;;;13.37;100.00;100323.45;1659128;86;21055;-69
2022/10/05 09:51:51;;;;;;;4.47;1.95;;;;;;;13.51;100.00;100316.31;1658323;86;21107;-71
2022/10/05 09:54:43;;;;;;;3.27;1.50;;;;;;;13.56;100.00;100318.23;1662271;85;21137;-70
2022/10/05 09:57:15;;;;;;;4.65;1.40;;;;;;;13.59;100.00;100320.41;1665903;86;21092;-70
2022/10/05 10:00:30;;;;;;;2.98;1.15;;;;;;;13.75;100.00;100325.55;1665877;85;21182;-69
2022/10/05 10:03:20;;;;;;;2.30;1.00;;;;;;;13.86;100.00;100320.86;1666383;85;21019;-70
2022/10/05 10:08:28;;;;;;;5.28;1.22;;;;;;;13.80;100.00;100315.14;1797235;79;23392;-68
2022/10/05 10:11:11;;;;;;;3.27;1.12;;;;;;;13.69;100.00;100314.90;1736289;82;21121;-72
2022/10/05 10:14:00;;;;;;;3.92;1.00;;;;;;;13.72;100.00;100323.91;1749966;82;21090;-70
2022/10/05 10:16:54;;;;;;;3.67;0.90;;;;;;;13.88;100.00;100309.10;1750968;82;21034;-69
2022/10/05 10:19:44;;;;;;;3.15;1.20;;;;;;;14.04;100.00;100315.31;1750525;82;22208;-72
2022/10/05 10:22:53;;;;;;;3.40;0.98;;;;;;;14.21;100.00;100310.30;1750618;82;21066;-73
2022/10/05 10:25:37;;;;;;;2.77;1.10;;;;;;;14.31;100.00;100315.17;1750556;82;21341;-69
2022/10/05 10:28:21;;;;;;;2.65;1.07;;;;;;;14.38;100.00;100314.34;1751106;82;21020;-70
2022/10/05 10:31:19;;;;;;;2.25;1.10;;;;;;;14.43;100.00;100314.87;1750451;82;21561;-71
2022/10/05 10:34:08;;;;;;;;;;;;;;;14.55;100.00;100320.02;1753553;81;22166;-72
2022/10/05 10:36:50;;;;;;;;;;;;;;;14.58;100.00;100316.70;1753302;82;20138;-73
2022/10/05 10:39:48;;;;;;;4.42;1.27;;;;;;;14.61;100.00;100326.55;1750514;81;20158;-72
2022/10/05 10:42:35;;;;;;;2.92;1.15;;;;;;;14.59;100.00;100325.20;1750927;81;21074;-71
2022/10/05 10:45:36;;;;;;;3.35;1.05;;;;;;;14.57;100.00;100333.69;1750330;81;21624;-72
2022/10/05 10:48:06;;;;;;;2.80;1.17;;;;;;;14.58;100.00;100327.11;1750591;81;21070;-71
2022/10/05 10:51:06;;;;;;;1.77;1.15;;;;;;;14.61;100.00;100320.24;1740652;81;21042;-71
2022/10/05 10:54:22;;;;;;;2.22;1.05;;;;;;;14.60;100.00;100318.59;1750870;82;21633;-69
2022/10/05 10:57:15;;;;;;;2.62;0.93;;;;;;;14.64;100.00;100319.67;1750826;82;21562;-70
2022/10/05 11:00:23;;;;;;;3.50;1.05;;;;;;;14.73;100.00;100327.57;1721922;82;21066;-70
2022/10/05 11:03:22;;;;;;;2.30;1.15;;;;;;;14.74;100.00;100325.90;1750569;81;21034;-67
2022/10/05 11:05:57;;;;;;;2.35;1.00;;;;;;;14.69;100.00;100325.13;1750898;82;21025;-71
2022/10/05 11:08:56;;;;;;;5.20;1.05;;;;;;;14.66;100.00;100311.45;1749971;82;21086;-71
2022/10/05 11:11:49;;;;;;;;;;;;;;;14.51;100.00;100313.46;1753302;82;21039;-72
2022/10/05 11:14:30;;;;;;;4.12;1.02;;;;;;;14.43;100.00;100306.66;1750806;81;20133;-67
2022/10/05 11:17:28;;;;;;;2.95;1.20;;;;;;;14.36;100.00;100308.89;1750828;82;22110;-70
2022/10/05 11:20:39;;;;;;;2.63;1.03;;;;;;;14.41;100.00;100307.50;1729781;82;21384;-70
2022/10/05 11:23:55;;;;;;;3.25;1.10;;;;;;;14.38;100.00;100307.49;1750338;82;21034;-72
2022/10/05 11:26:43;;;;;;;3.55;1.30;;;;;;;14.43;100.00;100304.73;1750348;82;21058;-69
2022/10/05 11:29:41;;;;;;;4.00;1.20;;;;;;;14.45;100.00;100306.62;1749757;82;21114;-70
2022/10/05 11:32:55;;;;;;;2.67;1.17;;;;;;;14.37;100.00;100311.36;1705604;82;21110;-73
2022/10/05 11:35:58;;;;;;;2.25;0.80;;;;;;;14.31;100.00;100302.84;1749974;82;21075;-71
2022/10/05 11:38:42;;;;;;;2.85;0.90;;;;;;;14.23;100.00;100311.68;1749954;82;21087;-71
2022/10/05 11:41:32;;;;;;;3.15;0.80;;;;;;;14.17;100.00;100306.52;1749462;82;21023;-71
2022/10/05 11:44:14;;;;;;;6.85;1.07;;;;;;;14.11;100.00;100315.83;1750124;81;21126;-69
2022/10/05 11:46:56;;;;;;;3.95;1.00;;;;;;;14.11;100.00;100311.18;1751724;82;21066;-71
2022/10/05 11:49:41;;;;;;;4.35;1.22;;;;;;;14.17;100.00;100319.63;1751689;82;21011;-71
2022/10/05 11:52:16;;;;;;;4.50;1.22;;;;;;;14.15;100.00;100327.86;1751698;81;21052;-73
2022/10/05 11:55:23;;;;;;;4.10;1.47;;;;;;;14.11;100.00;100332.25;1751387;82;21089;-70
2022/10/05 11:58:00;;;;;;;2.27;0.80;;;;;;;14.07;100.00;100339.39;1750211;82;21070;-72
2022/10/05 12:00:33;;;;;;;4.53;0.95;;;;;;;14.06;100.00;100327.64;1750207;82;20987;-72
2022/10/05 12:03:25;;;;;;;2.47;1.00;;;;;;;14.04;100.00;100334.48;1749002;82;21589;-71
2022/10/05 12:06:21;;;;;;;2.22;0.72;;;;;;;14.08;100.00;100334.19;1749464;82;21019;-68
2022/10/05 12:09:14;;;;;;;1.98;1.00;;;;;;;14.09;100.00;100335.29;1750394;81;21027;-69
2022/10/05 12:12:03;;;;;;;4.37;1.10;;;;;;;14.03;100.00;100341.87;1707678;82;21059;-70
2022/10/05 12:15:00;;;;;;;3.67;1.30;;;;;;;13.95;100.00;100352.05;1750293;81;21095;-72
2022/10/05 12:17:44;;;;;;;4.05;1.50;;;;;;;13.87;100.00;100349.88;1750055;82;21098;-68
2022/10/05 12:20:34;;;;;;;3.75;1.32;;;;;;;13.78;100.00;100357.82;1750105;82;21090;-67
2022/10/05 12:23:21;;;;;;;3.40;1.30;;;;;;;13.79;100.00;100360.84;1749907;82;21070;-68
2022/10/05 12:26:00;;;;;;;;;;;;;;;13.82;100.00;100363.55;1752854;82;21050;-69
2022/10/05 12:28:43;;;;;;;3.35;1.02;;;;;;;13.77;100.00;100364.41;1750057;81;20882;-69
2022/10/05 12:31:45;;;;;;;2.42;0.90;;;;;;;13.69;100.00;100365.52;1750169;82;21374;-70
2022/10/05 12:35:04;;;;;;;3.02;0.75;;;;;;;13.67;100.00;100369.91;1750067;81;21146;-71
2022/10/05 12:37:50;;;;;;;1.95;0.80;;;;;;;13.75;100.00;100381.64;1750240;82;21066;-69
2022/10/05 12:40:27;;;;;;;3.02;0.90;;;;;;;13.83;100.00;100381.62;1750307;81;21015;-68
2022/10/05 12:43:22;;;;;;;2.60;0.90;;;;;;;13.83;100.00;100378.34;1750083;82;22158;-68
2022/10/05 12:46:09;;;;;;;3.55;1.00;;;;;;;13.82;100.00;100374.50;1750250;81;20967;-69
2022/10/05 12:48:55;;;;;;;3.10;1.07;;;;;;;13.80;100.00;100376.17;1717288;82;21091;-73
2022/10/05 12:51:47;;;;;;;3.08;1.22;;;;;;;13.87;100.00;100367.66;1750115;82;21022;-68
2022/10/05 12:54:43;;;;;;;4.28;1.22;;;;;;;13.91;100.00;100364.64;1749846;82;21079;-67
2022/10/05 12:57:37;;;;;;;3.70;1.30;;;;;;;13.89;100.00;100372.30;1750035;82;21121;-71
2022/10/05 13:00:14;;;;;;;2.85;0.90;;;;;;;13.83;100.00;100377.52;1749979;82;21087;-71
2022/10/05 13:02:47;;;;;;;;;;;;;;;13.77;100.00;100369.06;1752973;81;21070;-72
2022/10/05 13:05:28;;;;;;;2.87;1.00;;;;;;;13.84;100.00;100379.99;1750547;81;20118;-71
2022/10/05 13:08:01;;;;;;;3.45;1.10;;;;;;;13.91;100.00;100379.16;1750616;82;21055;-70